Time;durP1;ratioP1;P1;durP2;ratioP2;P2;SDS_P1;SDS_P2;PMS_P1;PMS_P2;Temp;Humidity;BMP_temperature;BMP_pressure;BME280_temperature;BME280_humidity;BME280_pressure;Samples;Min_cycle;Max_cycle;Signal;HPM_P1;HPM_P2
2021/12/14 00:01:36;;;;;;;14.43;12.93;;;6.80;99.90;;;;;;5093516;28;20103;-65
2021/12/14 00:04:11;;;;;;;14.65;13.13;;;6.80;99.90;;;;;;5093000;28;20115;-64
2021/12/14 00:09:31;;;;;;;15.05;13.40;;;6.90;99.90;;;;;;5093466;28;20085;-64
2021/12/14 00:17:38;;;;;;;15.05;13.18;;;6.90;99.90;;;;;;5092617;28;20042;-65
2021/12/14 00:20:20;;;;;;;14.32;12.82;;;6.90;99.90;;;;;;5088577;28;20036;-65
2021/12/14 00:25:25;;;;;;;15.15;13.55;;;6.80;99.90;;;;;;5093023;28;20520;-65
2021/12/14 00:27:51;;;;;;;14.70;13.23;;;6.90;99.90;;;;;;5093061;28;20028;-66
2021/12/14 00:30:17;;;;;;;16.50;14.13;;;6.80;99.90;;;;;;5090966;28;20020;-66
2021/12/14 00:32:43;;;;;;;14.25;12.75;;;6.80;99.90;;;;;;5092893;28;20081;-65
2021/12/14 00:35:12;;;;;;;14.98;13.23;;;6.90;99.90;;;;;;5092257;28;20453;-65
2021/12/14 00:37:45;;;;;;;15.88;13.80;;;6.80;99.90;;;;;;5092650;28;20109;-65
2021/12/14 00:40:29;;;;;;;15.70;14.02;;;6.90;99.90;;;;;;5091642;28;20032;-65
2021/12/14 00:42:57;;;;;;;14.55;13.05;;;6.90;99.90;;;;;;5091956;28;20062;-65
2021/12/14 00:45:27;;;;;;;15.52;13.90;;;6.90;99.90;;;;;;5089208;28;20028;-66
2021/12/14 00:47:53;;;;;;;15.90;13.65;;;6.90;99.90;;;;;;5092503;28;20048;-65
2021/12/14 00:50:22;;;;;;;15.85;14.15;;;6.90;99.90;;;;;;5092513;28;20035;-65
2021/12/14 00:52:49;;;;;;;16.02;13.63;;;6.90;99.90;;;;;;5092466;28;20049;-64
2021/12/14 00:55:23;;;;;;;15.63;14.02;;;6.90;99.90;;;;;;5091809;28;20040;-65
2021/12/14 00:57:49;;;;;;;15.90;13.45;;;6.90;99.90;;;;;;5092556;28;20165;-66
2021/12/14 01:00:18;;;;;;;15.15;13.63;;;6.90;99.90;;;;;;5091847;28;20122;-64
2021/12/14 01:02:44;;;;;;;16.65;14.25;;;6.90;99.90;;;;;;5092541;28;20127;-65
2021/12/14 01:05:15;;;;;;;14.90;13.07;;;6.90;99.90;;;;;;5091357;28;20380;-65
2021/12/14 01:07:41;;;;;;;14.85;13.20;;;6.90;99.90;;;;;;5091258;28;20032;-65
2021/12/14 01:10:15;;;;;;;15.57;13.63;;;6.90;99.90;;;;;;5091673;28;20028;-65
2021/12/14 01:12:49;;;;;;;15.15;13.63;;;7.00;99.90;;;;;;5092170;28;20111;-65
2021/12/14 01:15:28;;;;;;;15.93;14.23;;;6.90;99.90;;;;;;5091600;28;20149;-66
2021/12/14 01:19:13;;;;;;;16.48;14.27;;;6.90;99.90;;;;;;5092021;28;20031;-66
2021/12/14 01:21:41;;;;;;;15.32;13.27;;;6.90;99.90;;;;;;5077845;28;20035;-65
2021/12/14 01:24:24;;;;;;;15.10;13.50;;;6.90;99.90;;;;;;5091376;28;20024;-65
2021/12/14 01:26:51;;;;;;;16.30;13.70;;;7.00;99.90;;;;;;5092036;28;20077;-65
2021/12/14 01:29:18;;;;;;;14.30;12.80;;;6.90;99.90;;;;;;5091368;28;20420;-65
2021/12/14 01:31:47;;;;;;;14.02;12.52;;;7.00;99.90;;;;;;5091859;28;20044;-65
2021/12/14 01:34:21;;;;;;;13.82;12.43;;;6.90;99.90;;;;;;5090951;28;20024;-65
2021/12/14 01:36:52;;;;;;;14.32;12.88;;;7.00;99.90;;;;;;5091817;28;20024;-65
2021/12/14 01:39:34;;;;;;;14.35;12.65;;;7.00;99.90;;;;;;5091539;28;20032;-65
2021/12/14 01:42:09;;;;;;;15.27;13.18;;;7.00;99.90;;;;;;5091264;28;20127;-65
2021/12/14 01:44:39;;;;;;;14.80;12.90;;;7.00;99.90;;;;;;5091652;28;20036;-65
2021/12/14 01:47:10;;;;;;;15.77;13.93;;;7.00;99.90;;;;;;5090816;28;20055;-65
2021/12/14 01:49:37;;;;;;;15.23;13.65;;;7.00;99.90;;;;;;5092397;28;20457;-65
2021/12/14 01:52:11;;;;;;;15.45;13.95;;;7.00;99.90;;;;;;5095651;28;20034;-65
2021/12/14 01:54:46;;;;;;;15.30;13.70;;;7.00;99.90;;;;;;5094254;28;20028;-65
2021/12/14 01:57:17;;;;;;;14.93;13.43;;;7.00;99.90;;;;;;5094093;28;20085;-64
2021/12/14 01:59:45;;;;;;;15.35;13.75;;;7.00;99.90;;;;;;5095603;28;20465;-65
2021/12/14 02:02:33;;;;;;;15.00;13.45;;;7.00;99.90;;;;;;5095200;28;20024;-64
2021/12/14 02:05:04;;;;;;;14.98;13.40;;;7.00;99.90;;;;;;5095589;28;20032;-64
2021/12/14 02:07:31;;;;;;;15.10;13.13;;;7.10;99.90;;;;;;5095448;28;20023;-65
2021/12/14 02:10:09;;;;;;;14.38;12.95;;;7.00;99.90;;;;;;5095516;28;20032;-64
2021/12/14 02:12:36;;;;;;;16.08;13.73;;;7.10;99.90;;;;;;5095771;28;20028;-64
2021/12/14 02:15:16;;;;;;;14.77;13.25;;;7.10;99.90;;;;;;5094664;28;20078;-65
2021/12/14 02:17:42;;;;;;;17.38;14.45;;;7.10;99.90;;;;;;5095553;28;20035;-65
2021/12/14 02:20:10;;;;;;;14.68;13.13;;;7.10;99.90;;;;;;5094893;28;20079;-64
2021/12/14 02:22:35;;;;;;;15.82;13.95;;;7.10;99.90;;;;;;5092257;28;20024;-64
2021/12/14 02:25:04;;;;;;;15.32;12.93;;;7.10;99.90;;;;;;5074366;28;20029;-64
2021/12/14 02:27:35;;;;;;;15.23;13.48;;;7.10;99.90;;;;;;5074640;28;20100;-64
2021/12/14 02:30:09;;;;;;;14.80;13.15;;;7.10;99.90;;;;;;5075215;28;20046;-64
2021/12/14 02:32:35;;;;;;;17.98;13.80;;;7.10;99.90;;;;;;5074693;28;20385;-64
2021/12/14 02:35:07;;;;;;;15.70;13.85;;;7.10;99.90;;;;;;5074862;28;20033;-64
2021/12/14 02:37:45;;;;;;;14.90;13.30;;;7.10;99.90;;;;;;5074910;28;20048;-64
2021/12/14 02:43:24;;;;;;;15.55;13.75;;;7.10;99.90;;;;;;5074184;28;20116;-64
2021/12/14 02:45:51;;;;;;;13.95;12.55;;;7.10;99.90;;;;;;5074559;28;20124;-64
2021/12/14 02:48:17;;;;;;;15.32;12.45;;;7.10;99.90;;;;;;5074037;28;20137;-64
2021/12/14 02:50:43;;;;;;;14.80;12.93;;;7.10;99.90;;;;;;5074561;28;20082;-65
2021/12/14 02:53:12;;;;;;;15.18;13.57;;;7.20;99.90;;;;;;5073823;28;20036;-64
2021/12/14 02:55:37;;;;;;;14.80;13.25;;;7.20;99.90;;;;;;5074702;28;20047;-65
2021/12/14 02:58:05;;;;;;;14.57;12.93;;;7.20;99.90;;;;;;5073095;28;20029;-65
2021/12/14 03:00:46;;;;;;;14.93;13.20;;;7.20;99.90;;;;;;5074367;28;20108;-65
2021/12/14 03:03:14;;;;;;;16.50;13.75;;;7.20;99.90;;;;;;5072718;28;20419;-65
2021/12/14 03:05:42;;;;;;;15.32;13.73;;;7.20;99.90;;;;;;5074281;28;20037;-64
2021/12/14 03:08:24;;;;;;;15.48;13.15;;;7.20;99.90;;;;;;5073765;28;20021;-63
2021/12/14 03:10:58;;;;;;;14.70;12.82;;;7.20;99.90;;;;;;5074151;28;20410;-64
2021/12/14 03:13:31;;;;;;;16.02;12.73;;;7.20;99.90;;;;;;5073551;28;20385;-64
2021/12/14 03:15:59;;;;;;;13.40;12.02;;;7.20;99.90;;;;;;5074079;28;20024;-64
2021/12/14 03:18:30;;;;;;;13.13;11.45;;;7.20;99.90;;;;;;5073388;28;20242;-65
2021/12/14 03:21:12;;;;;;;13.05;11.55;;;7.20;99.90;;;;;;5074026;28;20114;-65
2021/12/14 03:23:45;;;;;;;14.73;12.52;;;7.20;99.90;;;;;;5073671;28;20040;-65
2021/12/14 03:26:14;;;;;;;13.93;11.30;;;7.20;99.90;;;;;;5073337;28;20040;-65
2021/12/14 03:28:45;;;;;;;13.25;11.48;;;7.30;99.90;;;;;;5073886;28;20087;-64
2021/12/14 03:31:11;;;;;;;14.40;11.68;;;7.30;99.90;;;;;;5073298;28;20451;-64
2021/12/14 03:33:41;;;;;;;13.57;12.18;;;7.30;99.90;;;;;;5073792;28;20114;-64
2021/12/14 03:36:11;;;;;;;17.75;13.20;;;7.30;99.90;;;;;;5073238;28;20056;-64
2021/12/14 03:38:41;;;;;;;13.73;12.02;;;7.30;99.90;;;;;;5073586;28;20044;-64
2021/12/14 03:41:15;;;;;;;15.52;12.98;;;7.30;99.90;;;;;;5073276;28;20016;-64
2021/12/14 03:43:49;;;;;;;14.38;12.77;;;7.20;99.90;;;;;;5073276;28;20027;-64
2021/12/14 03:46:15;;;;;;;13.98;12.50;;;7.30;99.90;;;;;;5072898;28;20465;-64
2021/12/14 03:48:41;;;;;;;12.18;10.93;;;7.30;99.90;;;;;;5073525;28;20060;-64
2021/12/14 03:51:08;;;;;;;15.13;12.50;;;7.30;99.90;;;;;;5073172;28;20107;-64
2021/12/14 03:53:34;;;;;;;14.80;12.50;;;7.30;99.90;;;;;;5073258;28;20104;-65
2021/12/14 03:56:05;;;;;;;13.88;11.73;;;7.20;99.90;;;;;;5073263;28;20107;-64
2021/12/14 03:58:36;;;;;;;14.13;12.50;;;7.30;99.90;;;;;;5072658;28;20016;-64
2021/12/14 04:01:31;;;;;;;13.13;11.60;;;7.20;99.90;;;;;;5073246;28;20029;-64
2021/12/14 04:04:09;;;;;;;13.63;11.60;;;7.20;99.90;;;;;;5071093;28;20055;-64
2021/12/14 04:06:35;;;;;;;13.63;12.05;;;7.30;99.90;;;;;;5073089;28;20036;-64
2021/12/14 04:09:02;;;;;;;15.93;12.52;;;7.20;99.90;;;;;;5073040;28;20035;-64
2021/12/14 04:11:29;;;;;;;15.13;12.43;;;7.20;99.90;;;;;;5072458;28;20039;-63
2021/12/14 04:13:55;;;;;;;12.50;11.20;;;7.30;99.90;;;;;;5071927;28;20036;-64
2021/12/14 04:16:23;;;;;;;15.02;12.32;;;7.30;99.90;;;;;;5071931;28;20028;-64
2021/12/14 04:18:49;;;;;;;12.80;11.45;;;7.30;99.90;;;;;;5071176;28;20489;-64
2021/12/14 04:21:19;;;;;;;14.50;12.55;;;7.30;99.90;;;;;;5072199;28;20060;-64
2021/12/14 04:23:49;;;;;;;15.83;11.80;;;7.30;99.90;;;;;;5073668;28;20492;-64
2021/12/14 04:26:16;;;;;;;14.82;13.02;;;7.30;99.90;;;;;;5083045;28;20364;-63
2021/12/14 04:28:50;;;;;;;16.08;13.90;;;7.30;99.90;;;;;;5092816;28;20107;-64
2021/12/14 04:31:16;;;;;;;14.55;12.95;;;7.20;99.90;;;;;;5092319;28;20066;-64
2021/12/14 04:33:46;;;;;;;15.48;12.35;;;7.20;99.90;;;;;;5081580;28;20054;-64
2021/12/14 04:36:14;;;;;;;14.05;12.55;;;7.30;99.90;;;;;;5071885;28;20132;-62
2021/12/14 04:38:58;;;;;;;15.38;12.48;;;7.30;99.90;;;;;;5072207;28;20458;-64
2021/12/14 04:52:32;;;;;;;13.20;11.80;;;7.20;99.90;;;;;;5071866;28;20039;-64
2021/12/14 04:55:03;;;;;;;13.13;11.32;;;7.30;99.90;;;;;;5071836;28;20058;-65
2021/12/14 04:57:30;;;;;;;12.35;10.52;;;7.30;99.90;;;;;;5071347;28;20124;-65
2021/12/14 05:00:25;;;;;;;13.63;10.55;;;7.30;99.90;;;;;;5070670;28;20115;-65
2021/12/14 05:02:52;;;;;;;10.73;9.63;;;7.30;99.90;;;;;;5067684;28;20032;-65
2021/12/14 05:05:21;;;;;;;11.75;9.60;;;7.30;99.90;;;;;;5070032;28;20035;-65
2021/12/14 05:11:03;;;;;;;11.40;10.25;;;7.30;99.90;;;;;;5070560;28;20040;-64
2021/12/14 05:13:39;;;;;;;12.18;10.77;;;7.30;99.90;;;;;;5071216;28;20025;-64
2021/12/14 05:16:06;;;;;;;11.38;9.82;;;7.40;99.90;;;;;;5083345;28;20096;-64
2021/12/14 05:18:32;;;;;;;12.20;9.98;;;7.40;99.90;;;;;;5090301;28;20034;-65
2021/12/14 05:20:59;;;;;;;11.77;10.07;;;7.40;99.90;;;;;;5091506;28;20020;-65
2021/12/14 05:23:30;;;;;;;11.32;9.52;;;7.40;99.90;;;;;;5090671;28;20024;-65
2021/12/14 05:26:02;;;;;;;12.85;10.50;;;7.40;99.90;;;;;;5090982;28;20056;-64
2021/12/14 05:28:29;;;;;;;13.13;10.75;;;7.40;99.90;;;;;;5090657;28;20368;-64
2021/12/14 05:30:58;;;;;;;11.85;9.75;;;7.40;99.90;;;;;;5091351;28;20469;-65
2021/12/14 05:33:32;;;;;;;11.07;9.90;;;7.40;99.90;;;;;;5090677;28;20116;-64
2021/12/14 05:36:01;;;;;;;12.23;10.07;;;7.40;99.90;;;;;;5091575;28;20028;-64
2021/12/14 05:44:03;;;;;;;11.68;9.85;;;7.40;99.90;;;;;;5091297;28;20521;-65
2021/12/14 05:46:29;;;;;;;11.75;9.30;;;7.50;99.90;;;;;;5088955;28;20032;-64
2021/12/14 05:48:59;;;;;;;12.50;9.90;;;7.40;99.90;;;;;;5091056;28;20052;-65
2021/12/14 05:51:28;;;;;;;11.48;9.70;;;7.40;99.90;;;;;;5090112;28;20039;-65
2021/12/14 05:53:55;;;;;;;12.05;9.80;;;7.50;99.90;;;;;;5090579;28;20024;-64
2021/12/14 05:56:23;;;;;;;12.02;10.02;;;7.40;99.90;;;;;;5089581;28;20024;-65
2021/12/14 05:58:51;;;;;;;10.10;9.05;;;7.40;99.90;;;;;;5090532;28;20032;-64
2021/12/14 06:01:21;;;;;;;10.93;9.75;;;7.40;99.90;;;;;;5089720;28;20023;-64
2021/12/14 06:04:07;;;;;;;10.38;9.27;;;7.50;99.90;;;;;;5090159;28;20024;-63
2021/12/14 06:06:41;;;;;;;10.45;8.65;;;7.50;99.90;;;;;;5089259;28;20067;-64
2021/12/14 06:09:27;;;;;;;9.40;8.02;;;7.50;99.90;;;;;;5087125;28;20032;-64
2021/12/14 06:11:58;;;;;;;10.30;8.73;;;7.50;99.90;;;;;;5090867;28;20032;-64
2021/12/14 06:14:26;;;;;;;11.23;9.00;;;7.50;99.90;;;;;;5090145;28;20052;-64
2021/12/14 06:16:59;;;;;;;11.82;9.40;;;7.50;99.90;;;;;;5090794;28;20020;-64
2021/12/14 06:19:40;;;;;;;11.27;9.38;;;7.50;99.90;;;;;;5090575;28;20032;-64
2021/12/14 06:22:08;;;;;;;;;;;7.60;99.90;;;;;;5091128;28;20090;-65
2021/12/14 06:24:37;;;;;;;11.80;9.98;;;7.60;99.90;;;;;;5089990;28;19908;-64
2021/12/14 06:27:05;;;;;;;10.80;9.48;;;7.60;99.90;;;;;;5091125;28;20026;-65
2021/12/14 06:29:35;;;;;;;9.82;8.60;;;7.60;99.90;;;;;;5090156;28;20107;-65
2021/12/14 06:32:14;;;;;;;11.10;9.35;;;7.60;99.90;;;;;;5091619;28;20036;-65
2021/12/14 06:34:46;;;;;;;12.02;9.68;;;7.60;99.90;;;;;;5090588;28;20115;-64
2021/12/14 06:37:42;;;;;;;11.52;9.80;;;7.60;99.90;;;;;;5089159;28;20020;-65
2021/12/14 06:40:26;;;;;;;12.27;9.40;;;7.60;99.90;;;;;;5095123;28;20023;-64
2021/12/14 06:43:08;;;;;;;15.48;11.40;;;7.60;99.90;;;;;;5095237;28;20063;-64
2021/12/14 06:45:42;;;;;;;11.77;10.52;;;7.60;99.90;;;;;;5090815;28;20028;-64
2021/12/14 06:48:20;;;;;;;12.05;10.05;;;7.60;99.90;;;;;;5094939;28;20040;-64
2021/12/14 06:50:54;;;;;;;10.90;9.48;;;7.60;99.90;;;;;;5094524;28;20028;-64
2021/12/14 06:53:21;;;;;;;12.88;9.65;;;7.60;99.90;;;;;;5094327;28;20023;-65
2021/12/14 06:55:54;;;;;;;14.85;10.75;;;7.60;99.90;;;;;;5094577;28;20028;-64
2021/12/14 06:58:26;;;;;;;12.25;10.63;;;7.60;99.90;;;;;;5094660;28;20035;-64
2021/12/14 07:01:12;;;;;;;13.10;11.43;;;7.60;99.90;;;;;;5094562;28;20024;-64
2021/12/14 07:03:49;;;;;;;14.32;10.57;;;7.60;99.90;;;;;;5094075;28;20020;-64
2021/12/14 07:06:41;;;;;;;11.82;10.20;;;7.60;99.90;;;;;;5094576;28;20040;-64
2021/12/14 07:09:21;;;;;;;17.45;10.63;;;7.60;99.90;;;;;;5093609;28;20169;-64
2021/12/14 07:11:57;;;;;;;14.10;9.63;;;7.60;99.90;;;;;;5093490;28;20077;-64
2021/12/14 07:14:31;;;;;;;13.65;10.73;;;7.60;99.90;;;;;;5094090;28;20028;-64
2021/12/14 07:17:06;;;;;;;13.38;11.23;;;7.60;99.90;;;;;;5094210;28;20020;-64
2021/12/14 07:19:56;;;;;;;12.38;10.30;;;7.60;99.90;;;;;;5093727;28;20039;-64
2021/12/14 07:22:32;;;;;;;11.85;10.07;;;7.60;99.90;;;;;;5094165;28;20024;-65
2021/12/14 07:25:06;;;;;;;13.32;10.95;;;7.60;99.90;;;;;;5094122;28;20060;-64
2021/12/14 07:27:36;;;;;;;17.48;11.13;;;7.60;99.90;;;;;;5093279;28;20035;-64
2021/12/14 07:30:17;;;;;;;12.25;10.95;;;7.60;99.90;;;;;;5094310;28;20027;-64
2021/12/14 07:32:56;;;;;;;14.00;10.70;;;7.70;99.90;;;;;;5092248;28;20440;-65
2021/12/14 07:35:28;;;;;;;13.50;11.00;;;7.60;99.90;;;;;;5094130;28;20064;-65
2021/12/14 07:38:02;;;;;;;12.68;10.10;;;7.60;99.90;;;;;;5093949;28;20024;-64
2021/12/14 07:40:39;;;;;;;13.63;11.27;;;7.60;99.90;;;;;;5093297;28;20031;-64
2021/12/14 07:43:21;;;;;;;13.50;11.02;;;7.60;99.90;;;;;;5093931;28;20418;-64
2021/12/14 07:45:50;;;;;;;13.32;10.82;;;7.70;99.90;;;;;;5093126;28;20086;-64
2021/12/14 07:48:18;;;;;;;16.00;10.88;;;7.70;99.90;;;;;;5093668;28;20123;-64
2021/12/14 07:50:52;;;;;;;13.65;11.82;;;7.70;99.90;;;;;;5092933;28;20028;-64
2021/12/14 07:53:40;;;;;;;12.52;10.65;;;7.70;99.90;;;;;;5093712;28;20036;-65
2021/12/14 07:56:08;;;;;;;12.38;9.63;;;7.70;99.90;;;;;;5093786;28;20488;-65
2021/12/14 07:58:44;;;;;;;22.65;11.00;;;7.70;99.90;;;;;;5092811;28;20078;-65
2021/12/14 08:01:09;;;;;;;21.95;11.15;;;7.70;99.90;;;;;;5093683;28;20024;-65
2021/12/14 08:03:37;;;;;;;14.27;9.90;;;7.70;99.90;;;;;;5092624;28;20081;-64
2021/12/14 08:06:14;;;;;;;14.85;9.45;;;7.70;99.90;;;;;;5093356;28;20122;-65
2021/12/14 08:08:53;;;;;;;13.32;9.60;;;7.70;99.90;;;;;;5092583;28;20031;-64
2021/12/14 08:14:10;;;;;;;11.45;9.23;;;7.70;99.90;;;;;;5093001;28;20111;-65
2021/12/14 08:16:50;;;;;;;11.45;9.23;;;7.70;99.90;;;;;;5092636;28;20121;-65
2021/12/14 08:19:31;;;;;;;14.77;9.63;;;7.70;99.90;;;;;;5092905;28;20024;-64
2021/12/14 08:22:01;;;;;;;12.20;9.43;;;7.70;99.90;;;;;;5092973;28;20103;-64
2021/12/14 08:24:26;;;;;;;12.38;9.98;;;7.70;99.90;;;;;;5092776;28;20056;-64
2021/12/14 08:26:57;;;;;;;11.60;9.63;;;7.70;99.90;;;;;;5092424;28;20040;-64
2021/12/14 08:29:26;;;;;;;13.65;9.85;;;7.80;99.90;;;;;;5093151;28;20032;-64
2021/12/14 08:32:13;;;;;;;11.20;9.98;;;7.80;99.90;;;;;;5092206;28;20020;-64
2021/12/14 08:34:42;;;;;;;15.00;10.20;;;7.80;99.90;;;;;;5091975;28;20028;-64
2021/12/14 08:37:14;;;;;;;17.67;11.45;;;7.80;99.90;;;;;;5092611;28;20077;-64
2021/12/14 08:39:59;;;;;;;13.20;10.00;;;7.80;99.90;;;;;;5091947;28;20020;-64
2021/12/14 08:42:36;;;;;;;12.13;9.90;;;7.80;99.90;;;;;;5092677;28;20097;-64
2021/12/14 08:45:24;;;;;;;13.10;10.32;;;7.80;99.90;;;;;;5075605;28;20116;-64
2021/12/14 08:48:30;;;;;;;13.60;11.07;;;7.80;99.90;;;;;;5071225;28;20059;-64
2021/12/14 08:51:12;;;;;;;14.45;10.65;;;7.90;99.90;;;;;;5041180;28;20025;-63
2021/12/14 08:53:38;;;;;;;11.32;9.73;;;7.90;99.90;;;;;;5029269;28;20176;-64
2021/12/14 08:56:07;;;;;;;13.00;10.30;;;7.90;99.90;;;;;;5029844;28;20346;-64
2021/12/14 08:58:34;;;;;;;13.57;10.30;;;7.90;99.90;;;;;;5029064;28;20120;-64
2021/12/14 09:01:08;;;;;;;12.57;10.02;;;7.90;99.90;;;;;;5029190;28;20124;-64
2021/12/14 09:03:40;;;;;;;12.90;10.38;;;7.90;99.90;;;;;;5029215;28;20544;-64
2021/12/14 09:06:10;;;;;;;12.82;11.02;;;7.90;99.90;;;;;;5029593;28;20060;-64
2021/12/14 09:08:38;;;;;;;13.07;11.18;;;8.00;99.90;;;;;;5029051;28;20075;-64
2021/12/14 09:11:05;;;;;;;14.55;10.57;;;8.00;99.90;;;;;;5029989;28;20120;-64
2021/12/14 09:13:32;;;;;;;11.88;9.48;;;8.00;99.90;;;;;;5029191;28;20079;-62
2021/12/14 09:16:04;;;;;;;11.98;10.60;;;8.00;99.90;;;;;;5029527;28;20045;-64
2021/12/14 09:18:35;;;;;;;12.23;9.70;;;8.00;99.90;;;;;;5029508;28;20021;-64
2021/12/14 09:21:06;;;;;;;14.10;10.77;;;8.00;99.90;;;;;;5039422;28;20040;-64
2021/12/14 09:23:33;;;;;;;;;;;8.00;99.90;;;;;;5072261;28;20111;-64
2021/12/14 09:26:03;;;;;;;12.85;10.75;;;8.00;99.90;;;;;;5071624;28;20357;-64
2021/12/14 09:28:29;;;;;;;13.10;10.55;;;8.00;99.90;;;;;;5070255;28;20037;-63
2021/12/14 09:31:01;;;;;;;13.85;10.32;;;8.00;99.90;;;;;;5071110;28;20024;-64
2021/12/14 09:33:27;;;;;;;13.27;11.40;;;8.00;99.90;;;;;;5071712;28;20024;-64
2021/12/14 09:35:56;;;;;;;12.13;10.55;;;8.10;99.90;;;;;;5071008;28;20102;-63
2021/12/14 09:38:31;;;;;;;12.63;10.73;;;8.10;99.90;;;;;;5071634;28;20023;-63
2021/12/14 09:41:01;;;;;;;14.07;9.82;;;8.10;99.90;;;;;;5070967;28;20449;-64
2021/12/14 09:43:26;;;;;;;12.45;9.43;;;8.20;99.90;;;;;;5071339;28;20378;-63
2021/12/14 09:45:55;;;;;;;13.15;10.82;;;8.20;99.90;;;;;;5069516;28;20083;-63
2021/12/14 09:48:30;;;;;;;13.38;10.95;;;8.20;99.90;;;;;;5070068;28;20048;-63
2021/12/14 09:51:02;;;;;;;14.27;10.23;;;8.20;99.90;;;;;;5070884;28;20020;-63
2021/12/14 09:53:29;;;;;;;12.48;10.20;;;8.20;99.90;;;;;;5071502;28;20025;-63
2021/12/14 09:55:57;;;;;;;14.18;10.65;;;8.20;99.90;;;;;;5070761;28;20083;-65
2021/12/14 09:58:31;;;;;;;15.63;11.05;;;8.20;99.90;;;;;;5071447;28;20465;-64
2021/12/14 10:01:08;;;;;;;12.43;10.65;;;8.20;99.90;;;;;;5070433;28;20500;-64
2021/12/14 10:03:35;;;;;;;17.90;10.68;;;8.20;99.90;;;;;;5071316;28;20032;-64
2021/12/14 10:06:06;;;;;;;12.93;9.82;;;8.20;99.90;;;;;;5071238;28;20036;-64
2021/12/14 10:08:41;;;;;;;12.57;9.85;;;8.20;99.90;;;;;;5071098;28;20035;-64
2021/12/14 10:11:12;;;;;;;13.45;9.77;;;8.30;99.90;;;;;;5071253;28;20036;-64
2021/12/14 10:13:43;;;;;;;;;;;8.30;99.90;;;;;;5075014;28;20020;-64
2021/12/14 10:16:10;;;;;;;13.55;9.45;;;8.30;99.90;;;;;;5075091;28;20277;-65
2021/12/14 10:18:47;;;;;;;12.52;9.55;;;8.30;99.90;;;;;;5075132;28;20035;-64
2021/12/14 10:21:20;;;;;;;12.77;9.35;;;8.30;99.90;;;;;;5075152;28;20028;-64
2021/12/14 10:23:48;;;;;;;11.27;9.73;;;8.40;99.90;;;;;;5074497;28;20108;-64
2021/12/14 10:26:15;;;;;;;11.40;9.43;;;8.40;99.90;;;;;;5074639;28;20128;-64
2021/12/14 10:28:46;;;;;;;12.05;8.85;;;8.40;99.90;;;;;;5074421;28;20075;-64
2021/12/14 10:31:26;;;;;;;9.55;8.25;;;8.40;99.90;;;;;;5075096;28;20082;-65
2021/12/14 10:33:52;;;;;;;10.68;8.63;;;8.50;99.90;;;;;;5074275;28;20032;-64
2021/12/14 10:36:29;;;;;;;9.98;8.90;;;8.50;99.90;;;;;;5074339;28;20086;-64
2021/12/14 10:39:20;;;;;;;14.65;8.70;;;8.50;99.90;;;;;;5086810;28;20024;-64
2021/12/14 10:44:37;;;;;;;10.38;8.52;;;8.60;99.90;;;;;;5095058;28;20092;-63
2021/12/14 10:47:05;;;;;;;12.18;8.98;;;8.60;99.90;;;;;;5094331;28;20131;-64
2021/12/14 10:49:30;;;;;;;10.32;8.60;;;8.60;99.90;;;;;;5093555;28;20446;-64
2021/12/14 10:52:00;;;;;;;9.52;8.52;;;8.70;99.90;;;;;;5094517;28;20060;-63
2021/12/14 10:54:27;;;;;;;10.18;8.35;;;8.70;99.90;;;;;;5094758;28;20068;-63
2021/12/14 10:57:22;;;;;;;10.93;8.88;;;8.70;99.90;;;;;;5094010;28;20092;-63
2021/12/14 10:59:52;;;;;;;9.85;7.72;;;8.70;99.90;;;;;;5088433;28;20545;-63
2021/12/14 11:05:03;;;;;;;8.85;7.90;;;8.70;99.90;;;;;;5093919;28;20430;-64
2021/12/14 11:07:39;;;;;;;9.85;7.88;;;8.80;99.90;;;;;;5094485;28;20024;-64
2021/12/14 11:10:27;;;;;;;10.57;8.27;;;8.80;99.90;;;;;;5093888;28;20024;-64
2021/12/14 11:13:06;;;;;;;13.35;8.52;;;8.80;99.90;;;;;;5093888;28;20031;-64
2021/12/14 11:15:36;;;;;;;9.45;7.72;;;8.80;99.90;;;;;;5094092;28;20043;-63
2021/12/14 11:18:13;;;;;;;9.23;7.85;;;8.80;99.90;;;;;;5093779;28;20035;-63
2021/12/14 11:21:00;;;;;;;9.73;8.35;;;8.80;99.90;;;;;;5094344;28;20020;-64
2021/12/14 11:23:40;;;;;;;9.85;8.18;;;8.80;99.90;;;;;;5093949;28;20024;-64
2021/12/14 11:26:30;;;;;;;12.02;8.32;;;8.80;99.90;;;;;;5094354;28;20027;-64
2021/12/14 11:29:00;;;;;;;10.38;8.00;;;8.80;99.90;;;;;;5093602;28;20482;-63
2021/12/14 11:31:35;;;;;;;12.15;7.90;;;8.80;99.90;;;;;;5093959;28;20069;-64
2021/12/14 11:34:10;;;;;;;9.43;7.07;;;8.80;99.90;;;;;;5093109;28;20047;-64
2021/12/14 11:36:39;;;;;;;9.75;7.65;;;8.80;99.90;;;;;;5093872;28;20426;-63
2021/12/14 11:39:24;;;;;;;11.30;7.60;;;8.80;99.90;;;;;;5093045;28;20031;-64
2021/12/14 11:41:53;;;;;;;9.90;7.75;;;8.80;99.90;;;;;;5093224;28;20051;-63
2021/12/14 11:44:29;;;;;;;8.90;7.97;;;8.90;99.90;;;;;;5093794;28;20051;-64
2021/12/14 11:47:04;;;;;;;14.13;10.48;;;8.90;99.90;;;;;;5092960;28;20059;-63
2021/12/14 11:49:42;;;;;;;20.98;16.23;;;8.90;99.90;;;;;;5093575;28;20039;-64
2021/12/14 11:52:08;;;;;;;25.02;18.35;;;8.90;99.90;;;;;;5093905;28;20469;-64
2021/12/14 11:54:47;;;;;;;28.23;18.77;;;8.90;99.90;;;;;;5093483;28;20059;-64
2021/12/14 11:57:15;;;;;;;26.27;18.63;;;8.80;99.90;;;;;;5093672;28;20419;-64
2021/12/14 11:59:41;;;;;;;27.05;19.98;;;8.80;99.90;;;;;;5093495;28;20399;-64
2021/12/14 12:02:09;;;;;;;27.48;20.00;;;8.80;99.90;;;;;;5093052;28;20077;-64
2021/12/14 12:04:42;;;;;;;28.20;21.25;;;8.80;99.90;;;;;;5093379;28;20024;-65
2021/12/14 12:09:45;;;;;;;27.88;20.35;;;8.80;99.90;;;;;;5093386;28;20024;-65
2021/12/14 12:12:30;;;;;;;28.08;20.10;;;8.70;99.90;;;;;;5093456;28;20024;-65
2021/12/14 12:15:18;;;;;;;30.60;20.05;;;8.70;99.90;;;;;;5092788;28;20418;-64
2021/12/14 12:17:56;;;;;;;31.52;21.42;;;8.70;99.90;;;;;;5093115;28;20020;-65
2021/12/14 12:20:25;;;;;;;33.03;21.35;;;8.70;99.90;;;;;;5091912;28;20030;-64
2021/12/14 12:22:57;;;;;;;29.63;21.20;;;8.70;99.90;;;;;;5092386;28;20024;-64
2021/12/14 12:25:40;;;;;;;32.55;22.08;;;8.60;99.90;;;;;;5092794;28;20034;-65
2021/12/14 12:28:07;;;;;;;37.42;23.00;;;8.60;99.90;;;;;;5092515;28;20338;-64
2021/12/14 12:31:01;;;;;;;31.30;21.45;;;8.60;99.90;;;;;;5091563;28;20059;-64
2021/12/14 12:33:30;;;;;;;31.63;22.73;;;8.60;99.90;;;;;;5092584;28;20046;-64
2021/12/14 12:36:07;;;;;;;36.53;23.92;;;8.60;99.90;;;;;;5091342;28;20032;-64
2021/12/14 12:38:45;;;;;;;40.33;27.33;;;8.60;99.90;;;;;;5092390;28;20082;-65
2021/12/14 12:41:26;;;;;;;34.70;22.73;;;8.60;99.90;;;;;;5092219;28;20024;-64
2021/12/14 12:44:10;;;;;;;34.65;22.73;;;8.60;99.90;;;;;;5087009;28;20064;-64
2021/12/14 12:46:38;;;;;;;30.15;22.70;;;8.50;99.90;;;;;;5072216;28;20031;-64
2021/12/14 12:49:09;;;;;;;39.88;24.02;;;8.50;99.90;;;;;;5071498;28;20099;-64
2021/12/14 12:51:39;;;;;;;;;;;8.50;99.90;;;;;;5072498;28;20034;-64
2021/12/14 12:54:49;;;;;;;32.50;20.95;;;8.60;99.90;;;;;;5071527;28;20046;-64
2021/12/14 12:57:30;;;;;;;33.30;21.55;;;8.60;99.90;;;;;;5084452;28;20039;-64
2021/12/14 13:00:28;;;;;;;36.97;22.77;;;8.60;99.90;;;;;;5091668;28;20032;-64
2021/12/14 13:02:54;;;;;;;34.45;22.50;;;8.60;99.90;;;;;;5091666;28;20016;-64
2021/12/14 13:05:45;;;;;;;33.33;21.83;;;8.60;99.90;;;;;;5092173;28;20099;-64
2021/12/14 13:08:11;;;;;;;;;;;8.60;99.90;;;;;;5092017;28;20024;-64
2021/12/14 13:10:51;;;;;;;34.38;21.85;;;8.60;99.90;;;;;;5091928;28;19911;-64
2021/12/14 13:13:28;;;;;;;32.28;23.48;;;8.60;99.90;;;;;;5092127;28;20119;-63
2021/12/14 13:16:03;;;;;;;31.73;21.98;;;8.60;99.90;;;;;;5091531;28;20024;-63
2021/12/14 13:18:34;;;;;;;31.60;22.73;;;8.60;99.90;;;;;;5092226;28;20028;-64
2021/12/14 13:21:00;;;;;;;34.65;22.75;;;8.60;99.90;;;;;;5091554;28;20024;-64
2021/12/14 13:24:19;;;;;;;33.53;21.42;;;8.60;99.90;;;;;;5091944;28;20031;-65
2021/12/14 13:27:03;;;;;;;34.50;22.70;;;8.60;99.90;;;;;;5009696;28;20430;-64
2021/12/14 13:29:44;;;;;;;33.95;21.45;;;8.60;99.90;;;;;;5091994;28;20372;-64
2021/12/14 13:32:42;;;;;;;33.88;23.13;;;8.60;99.90;;;;;;5091222;28;20512;-64
2021/12/14 13:35:21;;;;;;;32.65;21.50;;;8.60;99.90;;;;;;5087028;28;20071;-63
2021/12/14 13:37:52;;;;;;;37.90;22.90;;;8.60;99.90;;;;;;5091834;28;20035;-64
2021/12/14 13:40:30;;;;;;;32.08;22.45;;;8.60;99.90;;;;;;5091974;28;20020;-64
2021/12/14 13:43:11;;;;;;;34.15;23.52;;;8.60;99.90;;;;;;5091371;28;20036;-64
2021/12/14 13:46:02;;;;;;;35.42;21.92;;;8.60;99.90;;;;;;5091543;28;20467;-63
2021/12/14 13:48:34;;;;;;;28.50;21.33;;;8.60;99.90;;;;;;5091951;28;20425;-64
2021/12/14 13:51:06;;;;;;;35.28;23.02;;;8.60;99.90;;;;;;5091125;28;20061;-64
2021/12/14 13:53:32;;;;;;;32.20;20.88;;;8.60;99.90;;;;;;5091713;28;20035;-64
2021/12/14 13:56:09;;;;;;;34.40;22.10;;;8.60;99.90;;;;;;5090814;28;20028;-64
2021/12/14 13:58:38;;;;;;;30.98;22.75;;;8.60;99.90;;;;;;5091279;28;20032;-64